createdAt,value
2019-02-22T00:01:37.658Z,63.25
2019-02-22T00:04:06.141Z,62.40
2019-02-22T00:06:34.701Z,65.65
2019-02-22T00:09:04.881Z,65.65
2019-02-22T00:11:33.373Z,64.55
2019-02-22T00:14:01.851Z,62.70
2019-02-22T00:16:32.360Z,58.73
2019-02-22T00:19:00.605Z,66.05
2019-02-22T00:21:29.155Z,64.22
2019-02-22T00:23:57.740Z,68.78
2019-02-22T00:26:26.449Z,66.90
2019-02-22T00:28:54.982Z,68.75
2019-02-22T00:31:23.411Z,75.72
2019-02-22T00:33:51.922Z,77.15
2019-02-22T00:36:20.400Z,71.12
2019-02-22T00:38:48.981Z,65.28
2019-02-22T00:41:17.541Z,63.52
2019-02-22T00:43:46.025Z,68.97
2019-02-22T00:46:14.563Z,68.40
2019-02-22T00:48:43.098Z,67.82
2019-02-22T00:51:11.648Z,67.08
2019-02-22T00:53:40.121Z,66.35
2019-02-22T00:56:08.593Z,69.80
2019-02-22T00:58:37.095Z,64.20
2019-02-22T01:01:05.569Z,64.42
2019-02-22T01:03:34.069Z,66.53
2019-02-22T01:06:02.545Z,62.50
2019-02-22T01:08:31.046Z,61.05
2019-02-22T01:10:59.584Z,62.15
2019-02-22T01:13:28.096Z,64.27
2019-02-22T01:15:56.577Z,62.17
2019-02-22T01:18:25.040Z,61.80
2019-02-22T01:20:54.643Z,60.98
2019-02-22T01:23:23.400Z,56.42
2019-02-22T01:25:51.888Z,62.83
2019-02-22T01:28:20.347Z,55.83
2019-02-22T01:30:48.833Z,59.27
2019-02-22T01:33:17.290Z,59.58
2019-02-22T01:35:45.782Z,55.67
2019-02-22T01:38:14.265Z,63.40
2019-02-22T01:40:44.136Z,56.48
2019-02-22T01:43:12.796Z,49.90
2019-02-22T01:45:41.292Z,56.80
2019-02-22T01:48:09.778Z,58.70
2019-02-22T01:50:38.269Z,59.23
2019-02-22T01:53:06.844Z,53.58
2019-02-22T01:55:35.305Z,54.77
2019-02-22T01:58:03.774Z,58.05
2019-02-22T02:00:32.410Z,58.73
2019-02-22T02:03:03.797Z,56.45
2019-02-22T02:05:32.308Z,53.48
2019-02-22T02:08:00.784Z,52.58
2019-02-22T02:10:29.280Z,50.90
2019-02-22T02:12:57.747Z,53.05
2019-02-22T02:15:26.232Z,54.33
2019-02-22T02:17:54.688Z,53.75
2019-02-22T02:20:23.379Z,57.23
2019-02-22T02:22:51.824Z,55.33
2019-02-22T02:25:20.529Z,56.92
2019-02-22T02:27:48.999Z,48.58
2019-02-22T02:30:17.588Z,53.20
2019-02-22T02:32:46.081Z,54.40
2019-02-22T02:35:14.620Z,53.85
2019-02-22T02:37:43.208Z,61.68
2019-02-22T02:40:11.843Z,50.58
2019-02-22T02:42:40.339Z,51.08
2019-02-22T02:45:09.097Z,55.75
2019-02-22T02:47:37.589Z,57.62
2019-02-22T02:50:07.538Z,60.00
2019-02-22T02:52:36.032Z,56.75
2019-02-22T02:55:04.666Z,53.73
2019-02-22T02:57:33.184Z,56.08
2019-02-22T03:00:01.761Z,52.35
2019-02-22T03:02:31.305Z,57.20
2019-02-22T03:04:59.769Z,54.13
2019-02-22T03:07:44.989Z,53.60
2019-02-22T03:10:13.685Z,53.73
2019-02-22T03:12:42.236Z,60.33
2019-02-22T03:15:13.299Z,54.42
2019-02-22T03:17:41.864Z,61.98
2019-02-22T03:20:10.504Z,56.92
2019-02-22T03:22:38.980Z,53.65
2019-02-22T03:25:09.352Z,51.77
2019-02-22T03:27:37.921Z,57.48
2019-02-22T03:30:11.154Z,55.12
2019-02-22T03:32:39.670Z,52.45
2019-02-22T03:35:08.384Z,53.13
2019-02-22T03:37:36.927Z,50.17
2019-02-22T03:40:07.292Z,50.10
2019-02-22T03:42:35.747Z,49.85
2019-02-22T03:45:06.093Z,49.08
2019-02-22T03:47:35.460Z,48.95
2019-02-22T03:50:06.315Z,44.53
2019-02-22T03:52:39.209Z,25.72
2019-02-22T03:55:09.177Z,22.67
2019-02-22T03:57:37.720Z,21.45
2019-02-22T04:00:09.223Z,17.27
2019-02-22T04:02:37.695Z,18.55
2019-02-22T04:05:09.577Z,16.55
2019-02-22T04:07:38.044Z,17.80
2019-02-22T04:10:08.060Z,19.17
2019-02-22T04:12:36.593Z,17.67
2019-02-22T04:15:08.349Z,18.32
2019-02-22T04:17:37.053Z,17.32
2019-02-22T04:20:07.777Z,18.65
2019-02-22T04:22:36.297Z,16.77
2019-02-22T04:25:06.236Z,15.23
2019-02-22T04:27:34.691Z,17.27
2019-02-22T04:30:03.329Z,15.95
2019-02-22T04:32:31.825Z,17.75
2019-02-22T04:35:00.336Z,14.03
2019-02-22T04:37:28.777Z,14.93
2019-02-22T04:39:57.256Z,14.60
2019-02-22T04:42:25.739Z,13.72
2019-02-22T04:44:54.917Z,15.58
2019-02-22T04:47:23.397Z,16.40
2019-02-22T04:49:51.857Z,17.98
2019-02-22T04:52:20.347Z,14.93
2019-02-22T04:54:48.800Z,16.17
2019-02-22T04:57:17.277Z,19.23
2019-02-22T04:59:45.734Z,18.20
2019-02-22T05:02:14.276Z,16.90
2019-02-22T05:04:42.731Z,16.05
2019-02-22T05:07:11.230Z,15.63
2019-02-22T05:09:39.662Z,17.37
2019-02-22T05:12:11.171Z,14.38
2019-02-22T05:14:38.321Z,15.78
2019-02-22T05:17:06.805Z,14.50
2019-02-22T05:19:35.281Z,18.17
2019-02-22T05:22:03.777Z,17.27
2019-02-22T05:24:32.312Z,20.80
2019-02-22T05:27:00.880Z,19.87
2019-02-22T05:29:29.491Z,20.17
2019-02-22T05:31:57.986Z,22.37
2019-02-22T05:34:29.441Z,20.37
2019-02-22T05:36:57.908Z,22.25
2019-02-22T05:39:26.472Z,24.80
2019-02-22T05:41:54.936Z,24.75
2019-02-22T05:44:23.490Z,23.45
2019-02-22T05:46:59.946Z,22.77
2019-02-22T05:49:22.627Z,23.12
2019-02-22T05:51:51.093Z,23.70
2019-02-22T05:54:19.599Z,23.73
2019-02-22T05:56:48.063Z,23.80
2019-02-22T05:59:16.619Z,25.08
2019-02-22T06:01:45.164Z,24.92
2019-02-22T06:04:13.647Z,27.50
2019-02-22T06:06:42.114Z,26.48
2019-02-22T06:09:10.699Z,30.08
2019-02-22T06:11:39.148Z,26.75
2019-02-22T06:14:07.627Z,27.95
2019-02-22T06:16:37.757Z,29.63
2019-02-22T06:19:06.227Z,28.92
2019-02-22T06:21:34.732Z,28.77
2019-02-22T06:24:03.340Z,27.00
2019-02-22T06:26:31.940Z,31.12
2019-02-22T06:29:03.236Z,32.38
2019-02-22T06:31:31.742Z,30.77
2019-02-22T06:34:02.169Z,30.77
2019-02-22T06:36:30.655Z,35.43
2019-02-22T06:38:59.201Z,36.53
2019-02-22T06:41:30.678Z,35.83
2019-02-22T06:43:59.148Z,34.05
2019-02-22T06:46:27.630Z,32.33
2019-02-22T06:48:56.099Z,32.15
2019-02-22T06:51:24.602Z,33.45
2019-02-22T06:53:53.065Z,33.63
2019-02-22T06:56:24.186Z,32.28
2019-02-22T06:58:51.743Z,29.98
2019-02-22T07:01:20.220Z,30.62
2019-02-22T07:03:48.705Z,33.33
2019-02-22T07:06:17.267Z,29.67
2019-02-22T07:08:45.775Z,30.40
2019-02-22T07:11:15.881Z,30.62
2019-02-22T07:13:44.366Z,24.07
2019-02-22T07:16:12.901Z,22.80
2019-02-22T07:18:41.541Z,22.02
2019-02-22T07:21:12.758Z,20.52
2019-02-22T07:23:41.311Z,19.90
2019-02-22T07:26:09.882Z,19.70
2019-02-22T07:28:38.383Z,15.15
2019-02-22T07:31:06.866Z,17.52
2019-02-22T07:33:35.346Z,16.00
2019-02-22T07:36:03.831Z,14.25
2019-02-22T07:38:32.307Z,12.95
2019-02-22T07:41:00.861Z,14.53
2019-02-22T07:43:29.341Z,12.45
2019-02-22T07:45:57.816Z,11.35
2019-02-22T07:48:26.280Z,15.63
2019-02-22T07:50:58.075Z,12.23
2019-02-22T07:53:26.509Z,9.43
2019-02-22T07:55:54.988Z,10.95
2019-02-22T07:58:23.450Z,10.50
2019-02-22T08:00:51.997Z,9.23
2019-02-22T08:03:20.537Z,11.57
2019-02-22T08:05:49.140Z,12.95
2019-02-22T08:08:17.616Z,13.22
2019-02-22T08:10:46.079Z,13.30
2019-02-22T08:13:19.848Z,11.95
2019-02-22T08:15:44.752Z,11.25
2019-02-22T08:18:13.217Z,9.48
2019-02-22T08:20:41.713Z,12.55
2019-02-22T08:23:10.180Z,10.05
2019-02-22T08:25:38.745Z,8.38
2019-02-22T08:28:07.211Z,8.65
2019-02-22T08:30:35.697Z,8.10
2019-02-22T08:33:04.233Z,10.35
2019-02-22T08:35:32.930Z,12.68
2019-02-22T08:38:02.945Z,10.50
2019-02-22T08:40:31.424Z,10.18
2019-02-22T08:42:59.876Z,9.85
2019-02-22T08:45:28.410Z,8.58
2019-02-22T08:47:56.940Z,7.95
2019-02-22T08:50:25.477Z,9.58
2019-02-22T08:52:54.002Z,10.68
2019-02-22T08:55:22.635Z,6.85
2019-02-22T08:57:51.130Z,10.48
2019-02-22T09:00:19.852Z,5.95
2019-02-22T09:02:48.308Z,7.55
2019-02-22T09:05:17.000Z,9.90
2019-02-22T09:07:45.451Z,8.50
2019-02-22T09:10:14.297Z,7.50
2019-02-22T09:12:42.758Z,7.40
2019-02-22T09:15:11.644Z,9.95
2019-02-22T09:17:40.114Z,8.50
2019-02-22T09:20:11.380Z,7.20
2019-02-22T09:22:39.911Z,6.00
2019-02-22T09:25:08.750Z,7.30
2019-02-22T09:27:37.293Z,6.72
2019-02-22T09:30:09.227Z,8.75
2019-02-22T09:32:37.713Z,10.13
2019-02-22T09:35:08.854Z,7.47
2019-02-22T09:37:37.479Z,7.62
2019-02-22T09:40:09.004Z,9.10
2019-02-22T09:42:39.044Z,6.62
2019-02-22T09:45:10.555Z,6.83
2019-02-22T09:47:39.094Z,7.65
2019-02-22T09:50:10.525Z,6.92
2019-02-22T09:52:39.000Z,7.83
2019-02-22T09:55:09.991Z,7.83
2019-02-22T09:57:38.837Z,4.62
2019-02-22T10:00:10.694Z,6.47
2019-02-22T10:02:39.211Z,5.97
2019-02-22T10:05:09.815Z,6.62
2019-02-22T10:07:38.292Z,5.97
2019-02-22T10:10:09.530Z,9.73
2019-02-22T10:12:37.981Z,6.45
2019-02-22T10:15:08.388Z,8.03
2019-02-22T10:17:36.857Z,8.00
2019-02-22T10:20:08.225Z,5.80
2019-02-22T10:22:36.715Z,7.60
2019-02-22T10:25:06.673Z,6.78
2019-02-22T10:27:38.308Z,8.93
2019-02-22T10:30:10.118Z,9.15
2019-02-22T10:32:38.596Z,5.80
2019-02-22T10:35:08.126Z,6.60
2019-02-22T10:37:36.581Z,11.33
2019-02-22T10:40:08.088Z,6.47
2019-02-22T10:42:36.543Z,7.45
2019-02-22T10:45:07.928Z,9.65
2019-02-22T10:47:36.368Z,6.42
2019-02-22T10:50:05.827Z,9.33
2019-02-22T10:52:34.272Z,8.10
2019-02-22T10:55:02.957Z,7.50
2019-02-22T10:57:31.393Z,6.58
2019-02-22T10:59:59.883Z,8.83
2019-02-22T11:02:28.355Z,8.43
2019-02-22T11:04:56.847Z,12.47
2019-02-22T11:07:25.347Z,6.33
2019-02-22T11:09:53.816Z,9.40
2019-02-22T11:12:24.361Z,7.03
2019-02-22T11:14:52.521Z,7.62
2019-02-22T11:17:21.069Z,9.38
2019-02-22T11:19:49.526Z,7.20
2019-02-22T11:22:18.031Z,6.42
2019-02-22T11:24:49.280Z,7.42
2019-02-22T11:27:17.741Z,5.47
2019-02-22T11:29:48.800Z,7.35
2019-02-22T11:32:17.960Z,6.28
2019-02-22T11:34:48.472Z,7.40
2019-02-22T11:37:16.938Z,6.22
2019-02-22T11:39:48.527Z,8.40
2019-02-22T11:42:17.009Z,9.70
2019-02-22T11:44:45.477Z,7.90
2019-02-22T11:47:13.955Z,5.95
2019-02-22T11:49:42.505Z,7.95
2019-02-22T11:52:10.971Z,8.33
2019-02-22T11:54:39.428Z,7.55
2019-02-22T11:57:08.143Z,5.45
2019-02-22T11:59:36.607Z,6.35
2019-02-22T12:02:05.298Z,5.67
2019-02-22T12:04:33.822Z,8.75
2019-02-22T12:07:02.465Z,5.28
2019-02-22T12:09:38.418Z,5.65
2019-02-22T12:12:07.014Z,7.55
2019-02-22T12:14:36.006Z,4.78
2019-02-22T12:17:04.560Z,7.05
2019-02-22T12:19:33.015Z,6.10
2019-02-22T12:22:01.484Z,7.62
2019-02-22T12:24:30.025Z,9.10
2019-02-22T12:26:58.486Z,6.92
2019-02-22T12:29:26.969Z,5.65
2019-02-22T12:31:55.455Z,6.58
2019-02-22T12:34:25.420Z,7.65
2019-02-22T12:36:53.906Z,6.62
2019-02-22T12:39:24.558Z,8.35
2019-02-22T12:41:53.745Z,5.05
2019-02-22T12:44:22.263Z,6.50
2019-02-22T12:46:50.729Z,4.92
2019-02-22T12:49:19.170Z,5.95
2019-02-22T12:51:47.750Z,6.67
2019-02-22T12:54:16.215Z,8.83
2019-02-22T12:56:57.080Z,3.65
2019-02-22T12:59:14.971Z,8.73
2019-02-22T13:01:43.552Z,5.75
2019-02-22T13:04:12.100Z,6.15
2019-02-22T13:06:40.595Z,6.75
2019-02-22T13:09:09.491Z,8.95
2019-02-22T13:11:37.957Z,6.30
2019-02-22T13:14:06.498Z,5.67
2019-02-22T13:16:35.020Z,7.60
2019-02-22T13:19:03.480Z,10.72
2019-02-22T13:21:31.941Z,6.87
2019-02-22T13:24:00.390Z,5.58
2019-02-22T13:26:28.864Z,8.08
2019-02-22T13:28:57.354Z,6.55
2019-02-22T13:31:30.232Z,6.55
2019-02-22T13:33:56.079Z,5.22
2019-02-22T13:36:24.621Z,7.78
2019-02-22T13:38:53.130Z,6.28
2019-02-22T13:41:21.592Z,3.87
2019-02-22T13:43:50.121Z,6.17
2019-02-22T13:46:18.599Z,6.90
2019-02-22T13:48:47.136Z,5.72
2019-02-22T13:51:15.593Z,7.37
2019-02-22T13:53:45.681Z,8.33
2019-02-22T13:56:14.165Z,6.10
2019-02-22T13:58:42.607Z,8.38
2019-02-22T14:01:11.095Z,5.80
2019-02-22T14:03:39.551Z,6.50
2019-02-22T14:06:08.051Z,7.30
2019-02-22T14:08:36.532Z,7.25
2019-02-22T14:11:05.012Z,9.05
2019-02-22T14:13:33.539Z,8.18
2019-02-22T14:16:02.004Z,8.25
2019-02-22T14:18:30.480Z,7.97
2019-02-22T14:20:58.942Z,6.05
2019-02-22T14:23:27.421Z,9.75
2019-02-22T14:25:55.925Z,8.00
2019-02-22T14:28:24.405Z,6.95
2019-02-22T14:30:52.855Z,7.40
2019-02-22T14:33:21.329Z,7.20
2019-02-22T14:35:49.780Z,6.50
2019-02-22T14:38:18.272Z,7.35
2019-02-22T14:40:46.728Z,8.23
2019-02-22T14:43:16.897Z,6.72
2019-02-22T14:45:49.266Z,8.95
2019-02-22T14:48:15.648Z,6.85
2019-02-22T14:50:44.208Z,5.22
2019-02-22T14:53:19.648Z,12.28
2019-02-22T14:55:43.052Z,14.50
2019-02-22T14:58:11.536Z,9.95
2019-02-22T15:00:40.004Z,9.13
2019-02-22T15:03:08.474Z,7.95
2019-02-22T15:05:36.939Z,7.10
2019-02-22T15:08:05.494Z,8.78
2019-02-22T15:10:34.012Z,9.13
2019-02-22T15:13:02.502Z,9.50
2019-02-22T15:18:26.334Z,8.50
2019-02-22T15:20:55.164Z,9.58
2019-02-22T15:23:23.658Z,7.47
2019-02-22T15:25:52.161Z,8.53
2019-02-22T15:28:20.632Z,9.88
2019-02-22T15:30:49.088Z,9.45
2019-02-22T15:33:18.401Z,6.87
2019-02-22T15:35:47.061Z,9.93
2019-02-22T15:38:15.564Z,8.38
2019-02-22T15:40:44.111Z,7.55
2019-02-22T15:43:12.602Z,6.03
2019-02-22T15:45:41.099Z,6.65
2019-02-22T15:48:09.609Z,8.70
2019-02-22T15:50:39.853Z,7.75
2019-02-22T15:53:08.330Z,8.03
2019-02-22T15:55:36.796Z,9.30
2019-02-22T15:58:05.283Z,8.43
2019-02-22T16:00:34.915Z,7.17
2019-02-22T16:03:05.072Z,12.03
2019-02-22T16:05:35.258Z,7.75
2019-02-22T16:08:03.806Z,10.53
2019-02-22T16:10:32.358Z,7.72
2019-02-22T16:13:00.840Z,8.45
2019-02-22T16:15:29.313Z,7.50
2019-02-22T16:18:02.513Z,9.78
2019-02-22T16:20:30.993Z,7.37
2019-02-22T16:23:04.486Z,6.83
2019-02-22T16:25:32.987Z,7.03
2019-02-22T16:28:01.557Z,6.55
2019-02-22T16:30:30.898Z,10.45
2019-02-22T16:32:59.362Z,7.15
2019-02-22T16:35:27.934Z,10.98
2019-02-22T16:37:56.426Z,8.73
2019-02-22T16:40:25.001Z,10.20
2019-02-22T16:42:54.999Z,9.00
2019-02-22T16:45:23.655Z,11.78
2019-02-22T16:47:52.141Z,5.85
2019-02-22T16:50:20.827Z,8.18
2019-02-22T16:52:49.297Z,6.70
2019-02-22T16:55:18.000Z,14.63
2019-02-22T16:57:47.977Z,9.63
2019-02-22T17:00:17.417Z,8.55
2019-02-22T17:02:45.875Z,9.70
2019-02-22T17:05:16.997Z,9.35
2019-02-22T17:07:45.540Z,8.75
2019-02-22T17:10:16.150Z,9.25
2019-02-22T17:12:46.205Z,7.33
2019-02-22T17:15:15.308Z,9.68
2019-02-22T17:17:43.837Z,7.85
2019-02-22T17:20:14.210Z,8.98
2019-02-22T17:22:42.698Z,7.33
2019-02-22T17:25:14.028Z,13.22
2019-02-22T17:27:42.500Z,11.08
2019-02-22T17:30:20.001Z,9.75
2019-02-22T17:32:48.529Z,8.35
2019-02-22T17:35:17.246Z,7.97
2019-02-22T17:37:50.695Z,9.38
2019-02-22T17:40:30.080Z,12.05
2019-02-22T17:42:58.551Z,7.22
2019-02-22T17:45:27.015Z,9.88
2019-02-22T17:48:22.821Z,7.75
2019-02-22T17:50:51.302Z,8.03
2019-02-22T17:53:21.589Z,8.10
2019-02-22T17:55:50.686Z,7.37
2019-02-22T17:58:24.466Z,8.35
2019-02-22T18:00:49.449Z,7.75
2019-02-22T18:03:24.413Z,11.73
2019-02-22T18:05:52.912Z,8.58
2019-02-22T18:08:21.382Z,8.20
2019-02-22T18:10:49.938Z,8.08
2019-02-22T18:13:18.401Z,8.38
2019-02-22T18:15:58.022Z,6.97
2019-02-22T18:18:25.735Z,10.55
2019-02-22T18:20:54.287Z,7.25
2019-02-22T18:23:22.800Z,10.10
2019-02-22T18:25:51.349Z,7.55
2019-02-22T18:28:22.519Z,8.33
2019-02-22T18:30:51.033Z,7.15
2019-02-22T18:33:21.082Z,8.10
2019-02-22T18:35:51.035Z,7.25
2019-02-22T18:38:19.554Z,6.67
2019-02-22T18:40:48.648Z,9.58
2019-02-22T18:43:18.463Z,6.28
2019-02-22T18:45:47.152Z,12.00
2019-02-22T18:51:47.702Z,7.55
2019-02-22T18:54:16.199Z,8.53
2019-02-22T18:56:44.665Z,7.53
2019-02-22T18:59:14.926Z,9.03
2019-02-22T19:01:45.885Z,6.20
2019-02-22T19:04:14.480Z,7.47
2019-02-22T19:06:42.953Z,8.88
2019-02-22T19:09:11.494Z,7.40
2019-02-22T19:11:39.957Z,10.53
2019-02-22T19:14:08.439Z,7.80
2019-02-22T19:16:36.921Z,6.83
2019-02-22T19:19:05.400Z,9.20
2019-02-22T19:21:33.885Z,9.10
2019-02-22T19:24:02.581Z,6.12
2019-02-22T19:26:31.127Z,9.38
2019-02-22T19:28:59.582Z,6.70
2019-02-22T19:31:28.073Z,8.30
2019-02-22T19:33:56.602Z,8.70
2019-02-22T19:36:25.101Z,11.20
2019-02-22T19:38:53.588Z,10.55
2019-02-22T19:41:22.054Z,8.95
2019-02-22T19:43:50.559Z,7.12
2019-02-22T19:46:19.054Z,10.98
2019-02-22T19:48:47.507Z,12.58
2019-02-22T19:51:18.834Z,12.73
2019-02-22T19:53:47.326Z,12.40
2019-02-22T19:56:15.811Z,12.43
2019-02-22T19:58:45.819Z,11.65
2019-02-22T20:01:14.376Z,13.62
2019-02-22T20:03:43.478Z,13.35
2019-02-22T20:06:12.184Z,12.23
2019-02-22T20:08:40.906Z,13.70
2019-02-22T20:11:09.719Z,8.48
2019-02-22T20:13:38.358Z,9.35
2019-02-22T20:16:06.944Z,13.08
2019-02-22T20:18:35.593Z,12.07
2019-02-22T20:21:07.455Z,10.72
2019-02-22T20:23:36.191Z,11.68
2019-02-22T20:26:04.894Z,8.48
2019-02-22T20:28:35.201Z,11.18
2019-02-22T20:31:04.181Z,11.60
2019-02-22T20:33:32.671Z,11.50
2019-02-22T20:36:02.674Z,7.80
2019-02-22T20:38:31.708Z,11.85
2019-02-22T20:41:00.396Z,12.75
2019-02-22T20:43:29.236Z,12.25
2019-02-22T20:45:57.995Z,14.68
2019-02-22T20:48:27.004Z,11.55
2019-02-22T20:50:55.630Z,14.00
2019-02-22T20:53:24.324Z,7.42
2019-02-22T20:55:52.995Z,10.15
2019-02-22T20:58:21.475Z,9.78
2019-02-22T21:00:53.745Z,11.78
2019-02-22T21:03:22.225Z,8.70
2019-02-22T21:05:50.764Z,7.08
2019-02-22T21:08:19.245Z,10.10
2019-02-22T21:10:49.014Z,10.58
2019-02-22T21:13:17.489Z,9.45
2019-02-22T21:15:46.114Z,10.15
2019-02-22T21:18:17.323Z,11.20
2019-02-22T21:20:45.800Z,7.55
2019-02-22T21:23:14.309Z,7.20
2019-02-22T21:25:42.873Z,9.88
2019-02-22T21:28:11.355Z,12.13
2019-02-22T21:30:39.832Z,9.48
2019-02-22T21:33:08.304Z,9.60
2019-02-22T21:35:36.931Z,10.98
2019-02-22T21:38:07.451Z,8.60
2019-02-22T21:40:35.750Z,14.00
2019-02-22T21:43:05.769Z,10.20
2019-02-22T21:45:42.599Z,9.18
2019-02-22T21:48:11.125Z,8.73
2019-02-22T21:50:39.614Z,10.10
2019-02-22T21:53:08.096Z,10.95
2019-02-22T21:55:36.584Z,10.43
2019-02-22T21:58:07.674Z,12.07
2019-02-22T22:00:36.237Z,7.92
2019-02-22T22:03:04.780Z,10.28
2019-02-22T22:05:37.487Z,10.80
2019-02-22T22:08:07.857Z,7.75
2019-02-22T22:10:36.377Z,9.30
2019-02-22T22:13:04.876Z,10.13
2019-02-22T22:15:36.540Z,11.53
2019-02-22T22:18:06.146Z,11.18
2019-02-22T22:20:34.610Z,10.43
2019-02-22T22:23:03.139Z,8.23
2019-02-22T22:25:31.613Z,10.00
2019-02-22T22:28:00.199Z,12.28
2019-02-22T22:30:28.660Z,9.50
2019-02-22T22:32:58.148Z,10.18
2019-02-22T22:35:26.614Z,9.65
2019-02-22T22:37:55.120Z,10.15
2019-02-22T22:40:23.863Z,9.75
2019-02-22T22:42:52.327Z,8.73
2019-02-22T22:45:20.894Z,10.75
2019-02-22T22:47:49.371Z,10.48
2019-02-22T22:50:18.340Z,10.50
2019-02-22T22:52:46.816Z,11.03
2019-02-22T22:55:18.729Z,9.30
2019-02-22T22:57:47.483Z,10.20
2019-02-22T23:03:21.696Z,11.43
2019-02-22T23:05:50.226Z,10.23
2019-02-22T23:08:18.719Z,10.40
2019-02-22T23:10:47.307Z,8.03
2019-02-22T23:13:15.768Z,13.75
2019-02-22T23:15:44.245Z,11.78
2019-02-22T23:18:12.784Z,12.13
2019-02-22T23:20:41.401Z,11.12
2019-02-22T23:23:10.032Z,9.05
2019-02-22T23:25:38.584Z,11.05
2019-02-22T23:28:11.584Z,11.05
2019-02-22T23:30:40.073Z,10.25
2019-02-22T23:33:08.626Z,10.00
2019-02-22T23:35:37.188Z,11.55
2019-02-22T23:38:05.658Z,10.15
2019-02-22T23:40:34.144Z,10.45
2019-02-22T23:43:02.626Z,13.30
2019-02-22T23:45:31.188Z,11.90
2019-02-22T23:47:59.649Z,11.85
2019-02-22T23:50:28.175Z,12.13
2019-02-22T23:52:56.645Z,13.00
2019-02-22T23:55:25.124Z,14.40
2019-02-22T23:57:53.619Z,13.90
